Time;durP1;ratioP1;P1;durP2;ratioP2;P2;SDS_P1;SDS_P2;PMS_P1;PMS_P2;Temp;Humidity;BMP_temperature;BMP_pressure;BME280_temperature;BME280_humidity;BME280_pressure;Samples;Min_cycle;Max_cycle;Signal;HPM_P1;HPM_P2
2021/12/29 00:00:27;;;;;;;2.92;1.90;;;;;;;8.30;79.22;97297.16;4200080;28;20209;-53
2021/12/29 00:02:29;;;;;;;3.75;2.05;;;;;;;8.28;79.50;97309.44;4201580;28;20241;-53
2021/12/29 00:04:32;;;;;;;7.10;2.13;;;;;;;8.27;79.82;97314.06;4194029;28;20250;-52
2021/12/29 00:06:34;;;;;;;4.80;2.08;;;;;;;8.30;79.65;97315.44;4207985;28;20811;-53
2021/12/29 00:08:36;;;;;;;6.65;2.20;;;;;;;8.24;79.58;97314.59;4210056;28;20273;-54
2021/12/29 00:10:37;;;;;;;3.28;1.48;;;;;;;8.27;79.66;97315.94;4208618;28;20210;-52
2021/12/29 00:12:41;;;;;;;5.15;2.13;;;;;;;8.23;80.58;97323.81;4207365;28;20215;-53
2021/12/29 00:14:43;;;;;;;4.57;2.35;;;;;;;8.25;80.35;97326.28;4209760;28;21857;-52
2021/12/29 00:16:45;;;;;;;7.88;1.73;;;;;;;8.22;80.04;97322.19;4207063;28;20232;-53
2021/12/29 00:19:02;;;;;;;3.17;1.58;;;;;;;8.18;80.36;97331.97;4209320;28;20263;-52
2021/12/29 00:21:06;;;;;;;4.60;1.83;;;;;;;8.21;80.66;97319.75;4209779;28;20691;-52
2021/12/29 00:23:08;;;;;;;2.33;1.73;;;;;;;8.21;80.64;97325.19;4191909;28;20271;-53
2021/12/29 00:25:13;;;;;;;7.10;1.65;;;;;;;8.21;80.65;97330.66;4208457;28;20206;-53
2021/12/29 00:27:15;;;;;;;4.72;1.98;;;;;;;8.25;80.32;97332.56;4192025;28;20261;-52
2021/12/29 00:29:17;;;;;;;6.68;1.60;;;;;;;8.26;79.86;97341.56;4210430;28;20209;-53
2021/12/29 00:31:20;;;;;;;3.15;1.63;;;;;;;8.24;80.28;97330.09;4211879;28;20238;-53
2021/12/29 00:33:22;;;;;;;7.50;1.60;;;;;;;8.22;80.04;97340.47;4209332;28;20213;-53
2021/12/29 00:35:23;;;;;;;5.20;1.75;;;;;;;8.25;79.85;97353.53;4207828;28;20237;-53
2021/12/29 00:37:25;;;;;;;3.03;1.67;;;;;;;8.25;79.90;97348.94;4209542;28;20222;-52
2021/12/29 00:39:27;;;;;;;2.35;1.73;;;;;;;8.26;79.61;97355.19;4220631;28;20236;-53
2021/12/29 00:41:28;;;;;;;5.15;1.50;;;;;;;8.24;80.11;97363.63;4208432;28;20251;-53
2021/12/29 00:43:30;;;;;;;4.57;2.85;;;;;;;8.29;79.84;97371.03;4207051;28;20225;-53
2021/12/29 00:45:35;;;;;;;2.05;1.52;;;;;;;8.30;80.08;97372.66;4206783;28;20238;-54
2021/12/29 00:47:38;;;;;;;5.45;1.90;;;;;;;8.29;79.58;97390.09;4210267;28;20262;-53
2021/12/29 00:49:41;;;;;;;3.72;1.83;;;;;;;8.31;79.79;97377.84;4222959;28;20198;-53
2021/12/29 00:51:42;;;;;;;3.13;1.52;;;;;;;8.28;79.72;97386.53;4222906;28;20413;-53
2021/12/29 00:53:44;;;;;;;4.88;1.67;;;;;;;8.30;79.58;97410.81;4207176;28;20606;-54
2021/12/29 00:55:46;;;;;;;7.55;2.25;;;;;;;8.30;79.93;97408.09;4210120;28;20230;-53
2021/12/29 00:57:48;;;;;;;6.90;2.08;;;;;;;8.28;79.95;97412.97;4209524;28;20241;-53
2021/12/29 00:59:49;;;;;;;4.70;2.30;;;;;;;8.30;79.80;97416.25;4208305;28;20214;-53
2021/12/29 01:01:52;;;;;;;3.60;1.55;;;;;;;8.33;78.94;97434.78;4206742;28;20698;-52
2021/12/29 01:03:54;;;;;;;2.55;2.33;;;;;;;8.27;79.59;97436.69;4202921;28;20683;-53
2021/12/29 01:05:58;;;;;;;2.92;1.77;;;;;;;8.25;79.89;97436.13;4208880;28;20202;-53
2021/12/29 01:08:00;;;;;;;4.93;1.58;;;;;;;8.25;79.73;97424.41;4219793;28;20213;-52
2021/12/29 01:10:04;;;;;;;5.05;2.03;;;;;;;8.22;79.87;97414.84;4207069;28;20203;-52
2021/12/29 01:12:06;;;;;;;7.45;1.80;;;;;;;8.23;80.17;97421.13;4208426;28;20210;-53
2021/12/29 01:14:08;;;;;;;5.63;2.53;;;;;;;8.20;80.91;97421.63;4209400;28;20225;-52
2021/12/29 01:18:32;;;;;;;8.25;1.48;;;;;;;8.18;80.07;97467.38;4208308;28;20227;-53
2021/12/29 01:20:34;;;;;;;2.72;1.42;;;;;;;8.21;80.13;97461.44;4208861;28;20774;-53
2021/12/29 01:22:35;;;;;;;2.78;2.13;;;;;;;8.21;80.03;97458.72;4190734;28;20231;-52
2021/12/29 01:24:37;;;;;;;5.30;1.50;;;;;;;8.16;80.39;97472.25;4207978;28;20684;-53
2021/12/29 01:26:41;;;;;;;3.58;1.83;;;;;;;8.16;80.04;97474.97;4207691;28;20236;-53
2021/12/29 01:28:44;;;;;;;4.07;1.30;;;;;;;8.19;80.21;97490.78;4208957;28;20261;-53
2021/12/29 01:30:46;;;;;;;2.28;1.50;;;;;;;8.17;80.61;97498.41;4222556;28;20342;-53
2021/12/29 01:32:48;;;;;;;4.63;2.47;;;;;;;8.19;80.25;97501.69;4223199;28;20242;-53
2021/12/29 01:34:50;;;;;;;3.92;1.73;;;;;;;8.15;80.70;97511.50;4208831;28;20194;-53
2021/12/29 01:36:52;;;;;;;3.20;1.73;;;;;;;8.12;80.62;97514.72;4208708;28;20203;-53
2021/12/29 01:38:54;;;;;;;6.45;1.55;;;;;;;8.19;80.51;97507.16;4202528;28;20238;-51
2021/12/29 01:40:55;;;;;;;4.32;2.00;;;;;;;8.11;80.82;97507.63;4223984;28;20225;-53
2021/12/29 01:42:57;;;;;;;4.82;1.40;;;;;;;8.13;80.50;97516.34;4225795;28;20214;-53
2021/12/29 01:44:59;;;;;;;6.10;1.90;;;;;;;8.14;81.16;97526.16;4224070;28;20194;-52
2021/12/29 01:47:02;;;;;;;5.35;2.03;;;;;;;8.09;80.28;97517.97;4223952;28;20247;-52
2021/12/29 01:49:06;;;;;;;6.15;1.80;;;;;;;8.12;81.09;97529.16;4208054;28;20213;-53
2021/12/29 01:51:08;;;;;;;5.32;1.73;;;;;;;8.08;80.89;97506.25;4224901;28;20202;-53
2021/12/29 01:53:12;;;;;;;4.93;2.75;;;;;;;8.08;81.19;97521.78;4212895;28;20198;-52
2021/12/29 01:55:15;;;;;;;8.02;3.70;;;;;;;8.13;81.02;97514.47;4210868;28;20234;-53
2021/12/29 01:57:18;;;;;;;5.55;2.20;;;;;;;8.15;80.53;97527.84;4207196;28;20568;-52
2021/12/29 01:59:20;;;;;;;7.60;2.30;;;;;;;8.05;81.36;97533.16;4210925;28;20199;-52
2021/12/29 02:01:23;;;;;;;5.78;2.55;;;;;;;8.08;80.67;97538.13;4207044;28;20264;-53
2021/12/29 02:03:25;;;;;;;4.38;1.70;;;;;;;8.12;80.21;97544.69;4218860;28;20957;-53
2021/12/29 02:05:27;;;;;;;3.72;1.95;;;;;;;8.08;80.88;97549.03;4187576;28;20264;-53
2021/12/29 02:07:29;;;;;;;3.78;1.77;;;;;;;8.09;80.44;97539.75;4198291;28;20234;-53
2021/12/29 02:09:31;;;;;;;3.45;1.75;;;;;;;8.10;80.29;97552.31;4201722;28;20640;-54
2021/12/29 02:11:34;;;;;;;6.38;2.40;;;;;;;8.09;80.23;97561.56;4209442;28;20221;-53
2021/12/29 02:13:36;;;;;;;6.18;1.60;;;;;;;8.08;80.74;97559.91;4208659;28;20812;-53
2021/12/29 02:15:38;;;;;;;3.35;2.28;;;;;;;8.04;80.42;97561.50;4224519;28;20225;-53
2021/12/29 02:17:39;;;;;;;4.75;1.92;;;;;;;8.10;80.96;97565.91;4207845;28;20415;-53
2021/12/29 02:19:46;;;;;;;6.13;2.67;;;;;;;8.04;80.57;97575.13;4208112;28;20822;-53
2021/12/29 02:21:56;;;;;;;4.20;2.33;;;;;;;8.11;79.88;97575.72;4192122;28;20219;-53
2021/12/29 02:26:10;;;;;;;5.65;2.10;;;;;;;8.10;80.65;97568.66;4209374;28;20328;-53
2021/12/29 02:28:13;;;;;;;2.67;2.22;;;;;;;8.12;79.74;97582.81;4191780;28;20250;-53
2021/12/29 02:30:16;;;;;;;8.43;2.55;;;;;;;8.12;79.73;97599.16;4226625;28;20202;-53
2021/12/29 02:32:18;;;;;;;4.13;1.98;;;;;;;8.14;79.95;97597.00;4205505;28;20207;-53
2021/12/29 02:34:19;;;;;;;5.18;1.83;;;;;;;8.08;80.17;97606.22;4211274;28;20203;-54
2021/12/29 02:36:21;;;;;;;3.00;1.75;;;;;;;8.13;79.92;97600.81;4190768;28;20728;-54
2021/12/29 02:38:35;;;;;;;5.57;2.17;;;;;;;8.09;80.47;97605.16;4208228;28;20219;-53
2021/12/29 02:40:37;;;;;;;6.38;1.92;;;;;;;8.12;80.03;97604.63;4186808;28;20228;-52
2021/12/29 02:42:41;;;;;;;1.70;1.50;;;;;;;8.16;79.63;97611.22;4199673;28;20317;-52
2021/12/29 02:44:43;;;;;;;5.13;2.17;;;;;;;8.13;79.87;97617.16;4207585;28;20203;-52
2021/12/29 02:46:44;;;;;;;6.47;2.25;;;;;;;8.13;80.57;97622.59;4208514;28;20688;-53
2021/12/29 02:48:56;;;;;;;3.22;2.20;;;;;;;8.13;80.43;97623.44;4207602;28;20202;-53
2021/12/29 02:50:59;;;;;;;4.18;2.28;;;;;;;8.06;80.85;97638.34;4206358;28;20245;-53
2021/12/29 02:53:01;;;;;;;5.15;2.03;;;;;;;8.04;80.51;97624.16;4225465;28;20202;-53
2021/12/29 02:55:03;;;;;;;3.50;2.33;;;;;;;8.05;80.39;97628.53;4209708;28;20213;-53
2021/12/29 02:57:05;;;;;;;4.45;2.00;;;;;;;8.07;80.34;97634.53;4199933;28;20228;-53
2021/12/29 02:59:07;;;;;;;3.40;1.77;;;;;;;8.07;80.51;97629.06;4223881;28;20214;-53
2021/12/29 03:01:12;;;;;;;3.50;1.60;;;;;;;8.03;81.15;97638.84;4218154;28;20229;-53
2021/12/29 03:03:19;;;;;;;8.82;3.28;;;;;;;8.03;80.98;97650.56;4209518;28;20707;-53
2021/12/29 03:05:23;;;;;;;3.80;1.77;;;;;;;8.09;80.79;97654.19;4224121;28;20233;-53
2021/12/29 03:07:28;;;;;;;3.28;2.03;;;;;;;8.03;80.67;97644.31;4207799;28;20699;-54
2021/12/29 03:09:30;;;;;;;5.78;2.05;;;;;;;8.08;80.72;97647.09;4208750;28;20238;-54
2021/12/29 03:11:32;;;;;;;4.85;2.70;;;;;;;8.01;81.22;97651.91;4206756;28;20242;-53
2021/12/29 03:13:36;;;;;;;6.93;1.73;;;;;;;8.03;81.39;97649.75;4206301;28;20391;-53
2021/12/29 03:15:39;;;;;;;3.85;2.28;;;;;;;8.03;81.14;97656.00;4206384;28;20207;-53
2021/12/29 03:17:40;;;;;;;3.90;2.33;;;;;;;8.00;80.98;97644.78;4205368;28;20235;-53
2021/12/29 03:19:42;;;;;;;4.20;1.90;;;;;;;8.03;80.74;97645.13;4210823;28;20733;-54
2021/12/29 03:21:47;;;;;;;3.83;1.95;;;;;;;8.02;81.12;97656.28;4206627;28;20293;-53
2021/12/29 03:23:49;;;;;;;3.70;1.92;;;;;;;8.00;81.62;97647.53;4210245;28;20214;-53
2021/12/29 03:25:52;;;;;;;7.40;2.28;;;;;;;8.00;80.84;97639.34;4227383;28;20210;-53
2021/12/29 03:27:59;;;;;;;3.15;2.78;;;;;;;8.04;80.77;97645.94;4226768;28;20217;-54
2021/12/29 03:30:02;;;;;;;3.33;1.67;;;;;;;8.03;81.46;97638.84;4208810;28;20198;-53
2021/12/29 03:32:08;;;;;;;3.80;1.73;;;;;;;8.01;81.63;97646.47;4209099;28;20198;-54
2021/12/29 03:34:10;;;;;;;8.70;2.22;;;;;;;7.98;80.89;97641.50;4209990;28;20195;-52
2021/12/29 03:36:13;;;;;;;4.75;1.75;;;;;;;7.97;80.95;97639.88;4210164;28;20202;-52
2021/12/29 03:38:24;;;;;;;8.85;1.63;;;;;;;8.05;81.05;97640.25;4210574;28;20222;-53
2021/12/29 03:40:26;;;;;;;5.57;2.60;;;;;;;7.96;81.15;97639.03;4188094;28;20657;-53
2021/12/29 03:42:27;;;;;;;3.25;1.70;;;;;;;7.96;81.27;97638.22;4209035;28;20254;-53
2021/12/29 03:44:29;;;;;;;5.03;2.10;;;;;;;7.97;80.87;97645.31;4211472;28;20199;-53
2021/12/29 03:46:33;;;;;;;7.70;2.72;;;;;;;7.97;81.46;97650.78;4191007;28;20204;-53
2021/12/29 03:48:37;;;;;;;9.70;3.28;;;;;;;8.00;81.18;97661.97;4209586;28;20226;-52
2021/12/29 03:50:40;;;;;;;4.50;2.25;;;;;;;8.03;80.83;97653.28;4206703;28;20207;-53
2021/12/29 03:52:43;;;;;;;8.25;1.67;;;;;;;8.02;81.16;97653.56;4210684;28;20264;-53
2021/12/29 03:54:44;;;;;;;7.93;2.30;;;;;;;7.99;81.06;97652.16;4211416;28;20731;-53
2021/12/29 03:56:46;;;;;;;3.60;2.83;;;;;;;7.95;80.50;97658.38;4210273;28;20234;-53
2021/12/29 03:58:48;;;;;;;3.13;1.90;;;;;;;7.97;81.06;97667.13;4210832;28;20237;-53
2021/12/29 04:00:52;;;;;;;3.80;2.15;;;;;;;7.95;81.05;97663.84;4205098;28;20688;-53
2021/12/29 04:02:54;;;;;;;2.78;1.55;;;;;;;7.95;81.14;97674.72;4204426;28;20222;-53
2021/12/29 04:04:56;;;;;;;4.97;2.15;;;;;;;7.95;81.03;97680.97;4205409;28;20211;-54
2021/12/29 04:06:57;;;;;;;3.80;3.17;;;;;;;7.91;81.19;97682.59;4189896;28;20196;-53
2021/12/29 04:08:59;;;;;;;4.13;2.30;;;;;;;7.95;81.31;97696.50;4202275;28;20222;-52
2021/12/29 04:11:01;;;;;;;3.53;1.80;;;;;;;7.99;81.19;97694.91;4207161;28;20227;-53
2021/12/29 04:13:03;;;;;;;5.30;2.10;;;;;;;7.96;80.84;97681.81;4207280;28;20256;-54
2021/12/29 04:15:07;;;;;;;1.48;1.38;;;;;;;8.00;80.86;97691.09;4208246;28;20202;-53
2021/12/29 04:17:12;;;;;;;3.40;1.98;;;;;;;7.94;81.00;97694.84;4209126;28;20764;-53
2021/12/29 04:19:15;;;;;;;4.82;2.03;;;;;;;7.86;81.07;97698.00;4205285;28;20198;-54
2021/12/29 04:21:18;;;;;;;7.35;2.75;;;;;;;7.90;81.16;97701.88;4208965;28;20694;-54
2021/12/29 04:23:20;;;;;;;5.88;3.15;;;;;;;7.95;81.25;97701.97;4209107;28;20234;-53
2021/12/29 04:25:24;;;;;;;5.30;2.58;;;;;;;7.93;81.19;97704.09;4209053;28;20230;-53
2021/12/29 04:27:26;;;;;;;9.70;2.40;;;;;;;7.92;81.50;97713.34;4207791;28;20411;-54
2021/12/29 04:29:27;;;;;;;4.47;2.42;;;;;;;7.89;81.50;97716.59;4203479;28;20222;-53
2021/12/29 04:31:29;;;;;;;7.38;3.47;;;;;;;7.90;81.05;97708.16;4206857;28;20219;-53
2021/12/29 04:33:31;;;;;;;5.43;2.70;;;;;;;7.85;81.69;97721.72;4208646;28;20210;-53
2021/12/29 04:35:33;;;;;;;4.07;1.95;;;;;;;7.86;81.64;97717.91;4210488;28;20314;-53
2021/12/29 04:37:35;;;;;;;3.45;2.10;;;;;;;7.87;81.43;97722.28;4207524;28;20226;-53
2021/12/29 04:39:37;;;;;;;4.00;2.78;;;;;;;7.86;81.80;97730.69;4209622;28;20211;-53
2021/12/29 04:41:39;;;;;;;3.15;1.98;;;;;;;7.83;81.74;97737.47;4208575;28;20198;-53
2021/12/29 04:43:40;;;;;;;4.80;2.22;;;;;;;7.88;81.42;97744.91;4209642;28;20219;-53
2021/12/29 04:45:42;;;;;;;5.55;2.92;;;;;;;7.85;81.91;97756.28;4209328;28;20211;-52
2021/12/29 04:47:48;;;;;;;6.70;1.98;;;;;;;7.86;81.49;97753.31;4207029;28;20312;-53
2021/12/29 04:49:50;;;;;;;5.15;2.05;;;;;;;7.92;80.84;97752.31;4211302;28;20209;-53
2021/12/29 04:52:02;;;;;;;6.50;1.88;;;;;;;7.95;81.11;97754.53;4212014;28;20230;-53
2021/12/29 04:54:05;;;;;;;3.25;2.50;;;;;;;8.02;80.51;97746.19;4205506;28;20641;-53
2021/12/29 04:56:07;;;;;;;1.70;1.48;;;;;;;7.93;81.01;97758.56;4204538;28;20210;-53
2021/12/29 04:58:09;;;;;;;5.25;2.63;;;;;;;7.90;81.13;97751.72;4207398;28;20273;-53
2021/12/29 05:00:11;;;;;;;4.80;1.80;;;;;;;7.93;80.47;97753.13;4207337;28;20656;-53
2021/12/29 05:02:13;;;;;;;5.28;1.40;;;;;;;7.91;80.61;97760.72;4209317;28;20588;-53
2021/12/29 05:04:29;;;;;;;2.45;1.65;;;;;;;7.95;80.65;97751.78;4209232;28;20219;-53
2021/12/29 05:08:51;;;;;;;2.85;1.83;;;;;;;7.97;79.95;97765.19;4210549;28;20276;-53
2021/12/29 05:10:55;;;;;;;5.80;1.63;;;;;;;7.95;80.23;97767.34;4209756;28;20199;-53
2021/12/29 05:12:57;;;;;;;2.22;1.52;;;;;;;7.90;79.96;97770.78;4194274;28;20609;-53
2021/12/29 05:14:59;;;;;;;4.10;1.77;;;;;;;7.97;79.56;97759.72;4211917;28;20679;-52
2021/12/29 05:17:00;;;;;;;4.57;2.58;;;;;;;7.87;80.30;97773.19;4211293;28;20203;-52
2021/12/29 05:19:02;;;;;;;2.17;1.70;;;;;;;7.91;80.37;97779.78;4208297;28;20238;-53
2021/12/29 05:21:06;;;;;;;3.78;1.65;;;;;;;7.88;80.34;97781.13;4207464;28;20884;-53
2021/12/29 05:23:09;;;;;;;3.00;2.10;;;;;;;7.88;80.15;97788.47;4208602;28;20245;-53
2021/12/29 05:25:10;;;;;;;4.47;2.33;;;;;;;7.94;80.17;97803.78;4200802;28;20625;-53
2021/12/29 05:27:12;;;;;;;2.25;1.55;;;;;;;7.90;80.25;97798.03;4207288;28;20218;-52
2021/12/29 05:29:14;;;;;;;4.22;2.00;;;;;;;7.91;79.27;97805.16;4205137;28;20230;-52
2021/12/29 05:31:16;;;;;;;3.85;2.03;;;;;;;7.89;79.77;97795.56;4207846;28;20290;-53
2021/12/29 05:33:18;;;;;;;3.70;1.70;;;;;;;7.89;80.31;97801.03;4210525;28;20207;-52
2021/12/29 05:35:19;;;;;;;2.95;1.73;;;;;;;7.89;80.47;97782.75;4183842;28;20203;-53
2021/12/29 05:37:21;;;;;;;5.05;1.73;;;;;;;7.85;79.88;97791.69;4206441;28;20669;-53
2021/12/29 05:39:23;;;;;;;1.65;1.40;;;;;;;7.87;79.86;97786.81;4207366;28;20242;-54
2021/12/29 05:41:24;;;;;;;1.75;1.65;;;;;;;7.84;80.01;97787.31;4205962;28;20290;-53
2021/12/29 05:43:26;;;;;;;2.70;1.63;;;;;;;7.83;79.88;97791.13;4207007;28;20226;-53
2021/12/29 05:45:28;;;;;;;6.75;1.67;;;;;;;7.80;80.37;97797.88;4208255;28;20923;-53
2021/12/29 05:47:30;;;;;;;8.73;2.33;;;;;;;7.87;79.83;97800.41;4208394;28;20226;-53
2021/12/29 05:49:32;;;;;;;5.30;2.60;;;;;;;7.88;79.96;97788.47;4226083;28;20349;-53
2021/12/29 05:51:33;;;;;;;2.58;1.60;;;;;;;7.87;80.14;97800.41;4208217;28;20229;-54
2021/12/29 05:53:35;;;;;;;5.70;2.17;;;;;;;7.84;80.03;97793.59;4209112;28;20203;-54
2021/12/29 05:55:37;;;;;;;2.97;1.83;;;;;;;7.82;80.09;97798.47;4203081;28;20459;-55
2021/12/29 05:57:39;;;;;;;6.43;1.50;;;;;;;7.93;79.21;97800.25;4203219;28;20261;-54
2021/12/29 05:59:41;;;;;;;4.30;2.03;;;;;;;8.00;78.80;97802.78;4209112;28;20214;-53
2021/12/29 06:01:44;;;;;;;3.70;1.92;;;;;;;7.89;79.46;97806.47;4208576;28;20207;-53
2021/12/29 06:03:46;;;;;;;10.45;1.50;;;;;;;7.95;79.77;97813.63;4208777;28;20318;-53
2021/12/29 06:05:48;;;;;;;4.13;1.80;;;;;;;7.94;79.34;97814.69;4208324;28;20226;-53
2021/12/29 06:07:50;;;;;;;3.67;1.60;;;;;;;7.95;79.06;97808.19;4206903;28;20223;-53
2021/12/29 06:09:52;;;;;;;3.70;2.17;;;;;;;8.00;78.94;97809.06;4207591;28;20207;-53
2021/12/29 06:11:53;;;;;;;6.00;2.00;;;;;;;8.00;79.30;97821.88;4209118;28;20229;-54
2021/12/29 06:13:55;;;;;;;2.45;1.38;;;;;;;8.00;78.91;97824.59;4206441;28;20654;-53
2021/12/29 06:15:58;;;;;;;4.13;1.65;;;;;;;7.95;78.95;97827.25;4206640;28;20256;-53
2021/12/29 06:18:00;;;;;;;5.88;2.00;;;;;;;7.97;78.92;97819.66;4207803;28;20232;-53
2021/12/29 06:20:03;;;;;;;3.55;1.23;;;;;;;7.93;79.19;97823.94;4208175;28;20218;-53
2021/12/29 06:22:08;;;;;;;2.33;1.33;;;;;;;7.91;79.14;97826.09;4206591;28;20210;-53
2021/12/29 06:24:10;;;;;;;8.88;1.73;;;;;;;7.90;79.52;97824.44;4191099;28;20716;-53
2021/12/29 06:26:13;;;;;;;3.40;1.77;;;;;;;7.89;80.01;97822.81;4208587;28;20203;-54
2021/12/29 06:28:15;;;;;;;3.08;1.58;;;;;;;7.85;79.70;97827.94;4208292;28;20222;-53
2021/12/29 06:30:19;;;;;;;2.88;1.60;;;;;;;7.87;79.67;97824.94;4203675;28;20203;-52
2021/12/29 06:32:20;;;;;;;1.60;1.38;;;;;;;7.96;79.60;97828.91;4224241;28;20198;-53
2021/12/29 06:34:22;;;;;;;3.70;1.77;;;;;;;7.90;79.55;97835.34;4191592;28;20564;-54
2021/12/29 06:36:24;;;;;;;2.78;1.75;;;;;;;7.91;79.18;97828.81;4225314;28;20323;-54
2021/12/29 06:38:25;;;;;;;3.33;2.08;;;;;;;7.91;79.34;97839.72;4210532;28;20261;-53
2021/12/29 06:40:27;;;;;;;2.75;1.67;;;;;;;7.90;79.03;97848.97;4202932;28;20215;-54
2021/12/29 06:42:29;;;;;;;3.58;1.33;;;;;;;7.88;79.03;97842.97;4210701;28;20199;-53
2021/12/29 06:44:31;;;;;;;2.33;1.10;;;;;;;7.83;79.88;97851.84;4211640;28;20253;-53
2021/12/29 06:46:34;;;;;;;2.58;2.13;;;;;;;7.82;79.95;97852.13;4212109;28;20271;-53
2021/12/29 06:48:36;;;;;;;2.90;1.77;;;;;;;7.84;79.84;97856.25;4227273;28;20300;-54
2021/12/29 06:50:38;;;;;;;2.95;2.17;;;;;;;7.84;79.69;97869.03;4210814;28;20218;-53
2021/12/29 06:52:39;;;;;;;4.00;2.17;;;;;;;7.96;78.96;97869.75;4194048;28;20265;-53
2021/12/29 06:54:41;;;;;;;2.53;1.90;;;;;;;7.84;79.17;97869.03;4227955;28;20566;-53
2021/12/29 06:56:43;;;;;;;2.95;2.15;;;;;;;7.90;79.04;97873.47;4209464;28;20199;-53
2021/12/29 06:58:45;;;;;;;8.05;2.03;;;;;;;7.99;78.60;97871.97;4208586;28;20328;-54
2021/12/29 07:00:47;;;;;;;4.05;1.33;;;;;;;8.00;79.12;97885.34;4207126;28;20207;-53
2021/12/29 07:02:48;;;;;;;4.15;1.85;;;;;;;7.95;78.64;97893.44;4211908;28;20198;-53
2021/12/29 07:04:50;;;;;;;2.85;1.40;;;;;;;7.99;78.80;97889.16;4227663;28;20701;-54
2021/12/29 07:06:55;;;;;;;3.63;2.20;;;;;;;7.97;78.23;97895.94;4227762;28;20202;-53
2021/12/29 07:08:57;;;;;;;3.47;1.92;;;;;;;8.06;78.62;97905.31;4230163;28;20198;-53
2021/12/29 07:11:00;;;;;;;3.78;2.10;;;;;;;8.02;78.54;97905.00;4211017;28;20203;-53
2021/12/29 07:13:01;;;;;;;2.88;1.95;;;;;;;7.99;79.20;97904.66;4208907;28;20248;-52
2021/12/29 07:15:03;;;;;;;4.20;1.77;;;;;;;7.97;78.61;97912.28;4210176;28;20203;-53
2021/12/29 07:17:06;;;;;;;4.95;1.92;;;;;;;8.02;78.96;97909.63;4226464;28;20580;-53
2021/12/29 07:19:08;;;;;;;5.68;1.90;;;;;;;7.98;78.65;97903.03;4210748;28;20566;-53
2021/12/29 07:21:09;;;;;;;3.83;1.75;;;;;;;7.97;78.55;97910.38;4209089;28;20219;-53
2021/12/29 07:23:12;;;;;;;8.50;3.08;;;;;;;7.98;78.52;97905.75;4208166;28;20299;-52
2021/12/29 07:25:13;;;;;;;3.42;2.00;;;;;;;8.03;78.68;97905.84;4191145;28;20620;-53
2021/12/29 07:27:16;;;;;;;7.25;1.83;;;;;;;7.98;79.32;97913.91;4210750;28;20222;-53
2021/12/29 07:29:17;;;;;;;3.35;1.73;;;;;;;8.02;78.53;97915.09;4206132;28;20729;-54
2021/12/29 07:31:23;;;;;;;4.07;2.13;;;;;;;7.99;79.01;97910.13;4207068;28;20194;-53
2021/12/29 07:33:45;;;;;;;8.80;2.58;;;;;;;7.99;78.59;97907.38;4208702;28;20217;-53
2021/12/29 07:35:47;;;;;;;11.25;2.40;;;;;;;7.93;79.23;97908.38;4209583;28;20642;-54
2021/12/29 07:37:49;;;;;;;5.70;2.25;;;;;;;8.01;78.40;97908.00;4202997;28;20606;-54
2021/12/29 07:39:51;;;;;;;5.95;2.72;;;;;;;7.95;78.91;97912.50;4210588;28;20202;-54
2021/12/29 07:41:54;;;;;;;6.47;1.73;;;;;;;7.96;78.44;97916.06;4209815;28;20202;-54
2021/12/29 07:43:56;;;;;;;5.97;2.08;;;;;;;7.99;78.98;97923.72;4210575;28;20219;-53
2021/12/29 07:45:59;;;;;;;7.35;3.28;;;;;;;8.10;78.69;97936.44;4228265;28;20206;-53
2021/12/29 07:48:04;;;;;;;6.32;2.88;;;;;;;8.01;78.51;97943.41;4207313;28;20322;-53
2021/12/29 07:50:06;;;;;;;9.00;3.00;;;;;;;8.02;78.42;97948.59;4194233;28;20207;-53
2021/12/29 07:52:28;;;;;;;8.00;2.60;;;;;;;8.03;78.64;97950.22;4214123;28;20261;-53
2021/12/29 07:54:29;;;;;;;6.80;2.65;;;;;;;8.11;78.59;97951.72;4213886;28;20267;-53
2021/12/29 07:56:31;;;;;;;6.13;3.30;;;;;;;8.10;77.86;97955.53;4229558;28;20210;-53
2021/12/29 07:58:33;;;;;;;8.35;2.97;;;;;;;8.00;78.00;97950.75;4212714;28;20223;-53
2021/12/29 08:00:35;;;;;;;7.80;3.65;;;;;;;8.03;78.53;97950.22;4208314;28;20202;-53
2021/12/29 08:02:37;;;;;;;8.35;3.85;;;;;;;8.01;78.50;97951.56;4207639;28;20215;-52
2021/12/29 08:04:39;;;;;;;10.30;3.45;;;;;;;8.11;78.23;97941.66;4190729;28;20227;-52
2021/12/29 08:06:41;;;;;;;6.03;2.58;;;;;;;8.02;78.78;97943.13;4205262;28;20276;-53
2021/12/29 08:08:43;;;;;;;7.22;3.30;;;;;;;8.10;78.71;97955.53;4208623;28;20311;-53
2021/12/29 08:10:45;;;;;;;9.90;3.75;;;;;;;8.01;78.73;97954.31;4205004;28;20199;-52
2021/12/29 08:12:48;;;;;;;11.20;3.15;;;;;;;8.00;78.18;97939.84;4186899;28;20681;-53
2021/12/29 08:14:51;;;;;;;13.23;3.08;;;;;;;8.05;77.75;97942.66;4205920;28;20226;-52
2021/12/29 08:16:52;;;;;;;5.55;2.92;;;;;;;8.06;78.35;97943.47;4205704;28;22504;-52
2021/12/29 08:18:54;;;;;;;16.55;4.38;;;;;;;8.02;78.79;97942.31;4209382;28;20296;-53
2021/12/29 08:20:56;;;;;;;6.72;3.35;;;;;;;8.00;78.48;97955.34;4209567;28;20207;-52
2021/12/29 08:22:58;;;;;;;11.98;4.60;;;;;;;8.03;78.05;97947.50;4190718;28;20591;-53
2021/12/29 08:25:00;;;;;;;5.35;2.67;;;;;;;8.10;78.20;97950.88;4204625;28;20245;-53
2021/12/29 08:27:01;;;;;;;10.15;2.97;;;;;;;8.14;78.12;97951.22;4208062;28;20228;-52
2021/12/29 08:29:03;;;;;;;12.13;3.22;;;;;;;8.06;78.42;97948.91;4208558;28;21564;-53
2021/12/29 08:31:05;;;;;;;5.13;3.17;;;;;;;8.10;78.13;97950.06;4207433;28;20213;-53
2021/12/29 08:33:07;;;;;;;7.60;4.13;;;;;;;8.11;78.05;97951.72;4208397;28;20216;-54
2021/12/29 08:35:09;;;;;;;8.25;2.90;;;;;;;8.21;77.56;97963.63;4223949;28;20198;-52
2021/12/29 08:37:12;;;;;;;6.82;3.85;;;;;;;8.16;77.90;97968.97;4206833;28;20314;-52
2021/12/29 08:39:14;;;;;;;9.02;3.38;;;;;;;8.10;77.92;97972.69;4204587;28;20225;-53
2021/12/29 08:41:16;;;;;;;8.27;3.35;;;;;;;8.11;78.51;97978.97;4205224;28;20345;-53
2021/12/29 08:43:18;;;;;;;5.43;2.85;;;;;;;8.16;77.53;97965.44;4208809;28;20245;-53
2021/12/29 08:45:21;;;;;;;7.25;3.15;;;;;;;8.22;77.86;97959.03;4204408;28;20246;-54
2021/12/29 08:47:23;;;;;;;7.25;3.28;;;;;;;8.21;77.69;97954.66;4205766;28;20238;-53
2021/12/29 08:49:25;;;;;;;4.93;3.03;;;;;;;8.21;78.21;97965.56;4205699;28;20277;-53
2021/12/29 08:51:27;;;;;;;7.35;2.80;;;;;;;8.24;77.79;97963.16;4204619;28;20238;-53
2021/12/29 08:53:29;;;;;;;10.63;3.80;;;;;;;8.24;77.79;97973.22;4191816;28;20566;-52
2021/12/29 08:55:32;;;;;;;14.10;3.53;;;;;;;8.34;77.50;97978.84;4208057;28;20222;-53
2021/12/29 08:57:34;;;;;;;16.48;7.50;;;;;;;8.34;78.45;97973.41;4218915;28;20268;-54
2021/12/29 08:59:36;;;;;;;9.65;6.45;;;;;;;8.31;78.17;97969.28;4205576;28;20235;-53
2021/12/29 09:01:37;;;;;;;6.82;5.88;;;;;;;8.35;77.69;97975.03;4208298;28;20297;-53
2021/12/29 09:03:41;;;;;;;11.25;7.32;;;;;;;8.36;77.76;97973.97;4206950;28;20217;-53
2021/12/29 09:05:43;;;;;;;8.55;5.88;;;;;;;8.36;77.66;97971.25;4206057;28;20923;-53
2021/12/29 09:07:46;;;;;;;11.38;7.40;;;;;;;8.35;78.14;97975.03;4204867;28;20226;-53
2021/12/29 09:09:48;;;;;;;7.90;7.10;;;;;;;8.44;78.35;97976.25;4209217;28;20341;-53
2021/12/29 09:11:50;;;;;;;15.50;6.78;;;;;;;8.37;77.54;97981.91;4207908;28;20230;-53
2021/12/29 09:13:54;;;;;;;4.70;3.72;;;;;;;8.39;77.73;97981.63;4207301;28;20241;-54
2021/12/29 09:15:57;;;;;;;5.03;4.10;;;;;;;8.44;77.68;97989.91;4202723;28;20660;-54
2021/12/29 09:17:59;;;;;;;5.55;3.20;;;;;;;8.41;78.09;97990.41;4207685;28;20322;-54
2021/12/29 09:20:02;;;;;;;5.60;2.42;;;;;;;8.50;77.81;97986.16;4194672;28;20269;-53
2021/12/29 09:22:05;;;;;;;7.25;4.57;;;;;;;8.46;77.66;97990.47;4210097;28;20230;-52
2021/12/29 09:24:06;;;;;;;6.00;2.58;;;;;;;8.41;77.79;97995.84;4209230;28;20731;-53
2021/12/29 09:26:11;;;;;;;9.20;4.00;;;;;;;8.41;77.75;97995.84;4207876;28;20202;-52
2021/12/29 09:28:15;;;;;;;7.32;3.20;;;;;;;8.51;77.69;98002.28;4210285;28;20226;-52
2021/12/29 09:30:22;;;;;;;5.63;2.78;;;;;;;8.55;77.92;98005.34;4208589;28;20225;-52
2021/12/29 09:32:24;;;;;;;5.22;2.70;;;;;;;8.51;76.98;97998.72;4207274;28;20233;-52
2021/12/29 09:34:25;;;;;;;9.77;2.30;;;;;;;8.51;76.99;97996.00;4225652;28;20667;-52
2021/12/29 09:36:27;;;;;;;4.30;3.08;;;;;;;8.54;77.55;97990.06;4209218;28;20257;-52
2021/12/29 09:38:32;;;;;;;8.05;2.67;;;;;;;8.48;77.01;97985.59;4208268;28;20234;-53
2021/12/29 09:40:35;;;;;;;3.72;2.38;;;;;;;8.55;77.02;97992.50;4207276;28;20209;-53
2021/12/29 09:42:37;;;;;;;6.43;3.30;;;;;;;8.56;77.40;97994.16;4203764;28;20238;-52
2021/12/29 09:44:38;;;;;;;7.75;2.50;;;;;;;8.54;77.56;97987.34;4209644;28;20265;-53
2021/12/29 09:46:40;;;;;;;3.78;3.05;;;;;;;8.56;77.46;97977.00;4208581;28;20209;-53
2021/12/29 09:48:42;;;;;;;6.15;2.55;;;;;;;8.66;77.04;97982.59;4209529;28;20401;-53
2021/12/29 09:50:45;;;;;;;5.15;2.28;;;;;;;8.66;76.66;97991.59;4191684;28;20290;-52